createdAt,value
2023-03-05T00:08:36.120Z,0.9
2023-03-05T00:25:49.023Z,0.8
2023-03-05T00:39:49.002Z,0.8
2023-03-05T00:52:35.780Z,0.8
2023-03-05T01:06:45.014Z,0.8
2023-03-05T01:15:50.762Z,0.9
2023-03-05T01:34:06.097Z,0.8
2023-03-05T01:49:53.357Z,0.8
2023-03-05T02:03:53.532Z,0.8
2023-03-05T02:09:39.137Z,0.8
2023-03-05T02:21:59.425Z,0
2023-03-05T02:33:04.642Z,0.6
2023-03-05T02:38:47.125Z,0.6
2023-03-05T02:52:37.276Z,0.2
2023-03-05T03:03:52.583Z,0.8
2023-03-05T03:11:29.642Z,0.6
2023-03-05T03:25:29.725Z,0.8
2023-03-05T03:42:15.968Z,0.8
2023-03-05T03:49:50.011Z,0.8
2023-03-05T04:04:20.802Z,0.8
2023-03-05T04:26:12.120Z,0.8
2023-03-05T04:32:25.971Z,0.8
2023-03-05T04:38:25.664Z,0.6
2023-03-05T04:52:25.775Z,0.8
2023-03-05T05:06:28.276Z,0.4
2023-03-05T05:20:25.834Z,0
2023-03-05T05:26:57.707Z,0
2023-03-05T05:38:49.847Z,0
2023-03-05T05:57:01.097Z,0
2023-03-05T06:07:48.131Z,0
2023-03-05T06:15:12.988Z,0.8
2023-03-05T06:26:18.408Z,0
2023-03-05T06:34:09.004Z,0.8
2023-03-05T06:49:09.532Z,0.8
2023-03-05T06:58:34.237Z,0.4
2023-03-05T07:04:09.753Z,0.8
2023-03-05T07:19:13.678Z,0.8
2023-03-05T07:35:46.303Z,0
2023-03-05T07:41:27.863Z,0
2023-03-05T07:59:04.543Z,0
2023-03-05T08:14:05.013Z,0.6
2023-03-05T08:29:06.773Z,1.2
2023-03-05T08:35:21.190Z,0.8
2023-03-05T08:41:02.437Z,1.1
2023-03-05T08:56:46.183Z,0.8
2023-03-05T09:11:46.129Z,0.8
2023-03-05T09:17:17.656Z,0
2023-03-05T09:26:25.493Z,0.6
2023-03-05T09:41:26.265Z,0.9
2023-03-05T09:54:49.389Z,0.7
2023-03-05T10:03:27.405Z,1.4
2023-03-05T10:08:52.164Z,0.6
2023-03-05T10:17:44.254Z,1.2
2023-03-05T10:32:44.329Z,1.4
2023-03-05T10:49:43.170Z,1.3
2023-03-05T10:56:19.815Z,1.4
2023-03-05T11:10:27.748Z,1.1
2023-03-05T11:26:20.131Z,1.2
2023-03-05T11:42:17.158Z,1.3
2023-03-05T11:46:34.412Z,1.5
2023-03-05T11:52:56.000Z,1.6
2023-03-05T12:06:22.290Z,1.3
2023-03-05T12:15:37.942Z,1.2
2023-03-05T12:22:12.500Z,1.4
2023-03-05T12:37:12.481Z,0.2
2023-03-05T12:46:14.271Z,0.8
2023-03-05T13:01:32.388Z,1.4
2023-03-05T13:10:00.736Z,0.8
2023-03-05T13:16:53.977Z,0.9
2023-03-05T13:25:10.653Z,1.3
2023-03-05T13:36:58.394Z,1.2
2023-03-05T13:52:23.892Z,1.4
2023-03-05T14:01:17.315Z,0.8
2023-03-05T14:11:06.066Z,0.6
2023-03-05T14:26:30.638Z,0.2
2023-03-05T14:36:03.677Z,0.2
2023-03-05T14:46:24.300Z,0
2023-03-05T15:07:54.511Z,0
2023-03-05T15:22:52.375Z,0
2023-03-05T15:31:07.153Z,0
2023-03-05T15:35:29.924Z,0
2023-03-05T15:53:25.069Z,0
2023-03-05T16:01:12.944Z,0
2023-03-05T16:14:22.121Z,0
2023-03-05T16:20:46.086Z,0
2023-03-05T16:35:46.090Z,0
2023-03-05T16:46:57.570Z,0
2023-03-05T17:03:11.360Z,0
2023-03-05T17:12:50.493Z,0.8
2023-03-05T17:31:13.849Z,0.8
2023-03-05T17:45:13.744Z,0
2023-03-05T17:57:28.166Z,0
2023-03-05T18:11:28.017Z,0
2023-03-05T18:19:11.463Z,0
2023-03-05T18:30:54.976Z,0
2023-03-05T18:36:39.717Z,0
2023-03-05T18:50:39.943Z,0
2023-03-05T19:08:52.506Z,0
2023-03-05T19:15:10.092Z,0
2023-03-05T19:29:10.085Z,0
2023-03-05T19:40:20.428Z,0
2023-03-05T19:52:31.036Z,0
2023-03-05T20:05:59.359Z,0
2023-03-05T20:18:18.231Z,0
2023-03-05T20:32:00.444Z,0
2023-03-05T20:44:31.742Z,0
2023-03-05T20:58:31.741Z,0
2023-03-05T21:08:25.057Z,0
2023-03-05T21:22:25.140Z,0
2023-03-05T21:33:47.531Z,0
2023-03-05T21:39:56.775Z,0
2023-03-05T21:51:28.888Z,0
2023-03-05T22:05:29.062Z,0
2023-03-05T22:24:52.732Z,0
2023-03-05T22:32:59.051Z,0
2023-03-05T22:40:46.034Z,0
2023-03-05T22:54:46.023Z,0
2023-03-05T23:07:20.260Z,0
2023-03-05T23:18:44.100Z,0
2023-03-05T23:27:12.184Z,0
2023-03-05T23:42:06.129Z,0.2
2023-03-05T23:54:14.130Z,0
